createdAt,value
2019-05-25T00:01:42.055Z,97629.47
2019-05-25T00:04:10.699Z,97637.17
2019-05-25T00:06:39.359Z,97633.79
2019-05-25T00:09:08.077Z,97633.38
2019-05-25T00:11:36.715Z,97632.15
2019-05-25T00:14:05.362Z,97628.66
2019-05-25T00:16:34.294Z,97625.23
2019-05-25T00:19:03.015Z,97625.92
2019-05-25T00:21:31.789Z,97628.56
2019-05-25T00:24:11.833Z,97629.69
2019-05-25T00:26:31.298Z,97622.42
2019-05-25T00:29:00.023Z,97619.06
2019-05-25T00:31:28.740Z,97626.70
2019-05-25T00:33:57.472Z,97626.12
2019-05-25T00:36:26.292Z,97626.91
2019-05-25T00:38:56.003Z,97622.18
2019-05-25T00:41:24.662Z,97630.98
2019-05-25T00:43:53.661Z,97638.37
2019-05-25T00:46:22.671Z,97634.95
2019-05-25T00:48:51.327Z,97627.84
2019-05-25T00:51:19.959Z,97640.20
2019-05-25T00:53:48.667Z,97632.77
2019-05-25T00:56:17.319Z,97633.05
2019-05-25T00:58:45.962Z,97635.84
2019-05-25T01:01:14.691Z,97639.05
2019-05-25T01:03:43.327Z,97634.49
2019-05-25T01:06:12.651Z,97639.55
2019-05-25T01:08:41.291Z,97639.77
2019-05-25T01:11:10.354Z,97639.97
2019-05-25T01:13:38.991Z,97628.68
2019-05-25T01:16:07.630Z,97625.84
2019-05-25T01:18:37.246Z,97628.20
2019-05-25T01:21:06.302Z,97637.21
2019-05-25T01:23:34.987Z,97634.68
2019-05-25T01:26:03.732Z,97633.31
2019-05-25T01:28:32.372Z,97638.78
2019-05-25T01:31:01.111Z,97641.86
2019-05-25T01:33:29.785Z,97640.80
2019-05-25T01:35:58.528Z,97645.07
2019-05-25T01:38:27.184Z,97649.55
2019-05-25T01:40:55.889Z,97654.48
2019-05-25T01:43:24.887Z,97651.11
2019-05-25T01:45:53.527Z,97644.89
2019-05-25T01:48:22.255Z,97648.63
2019-05-25T01:50:50.954Z,97648.20
2019-05-25T01:53:19.707Z,97648.33
2019-05-25T01:55:48.447Z,97642.78
2019-05-25T01:58:17.507Z,97645.48
2019-05-25T02:00:46.212Z,97641.50
2019-05-25T02:03:14.891Z,97642.22
2019-05-25T02:05:43.668Z,97642.97
2019-05-25T02:08:12.415Z,97643.72
2019-05-25T02:10:41.156Z,97636.41
2019-05-25T02:13:10.232Z,97644.79
2019-05-25T02:15:38.919Z,97644.75
2019-05-25T02:18:07.655Z,97645.87
2019-05-25T02:20:36.358Z,97643.29
2019-05-25T02:23:05.016Z,97642.97
2019-05-25T02:25:33.662Z,97639.64
2019-05-25T02:28:02.562Z,97641.02
2019-05-25T02:30:31.233Z,97641.02
2019-05-25T02:32:59.990Z,97638.73
2019-05-25T02:35:28.763Z,97635.05
2019-05-25T02:37:57.494Z,97632.14
2019-05-25T02:40:26.232Z,97636.99
2019-05-25T02:42:55.032Z,97632.43
2019-05-25T02:45:23.691Z,97635.45
2019-05-25T02:47:52.452Z,97641.97
2019-05-25T02:50:22.628Z,97643.77
2019-05-25T02:52:51.311Z,97648.94
2019-05-25T02:55:33.196Z,97652.41
2019-05-25T02:57:50.423Z,97648.15
2019-05-25T03:00:21.377Z,97651.78
2019-05-25T03:02:50.024Z,97657.17
2019-05-25T03:05:19.624Z,97653.50
2019-05-25T03:07:48.387Z,97659.08
2019-05-25T03:10:17.337Z,97654.49
2019-05-25T03:12:45.997Z,97656.38
2019-05-25T03:15:14.727Z,97667.11
2019-05-25T03:17:43.464Z,97670.80
2019-05-25T03:20:12.175Z,97667.55
2019-05-25T03:22:40.858Z,97670.02
2019-05-25T03:25:09.551Z,97665.34
2019-05-25T03:27:38.199Z,97662.17
2019-05-25T03:30:07.431Z,97667.95
2019-05-25T03:32:36.188Z,97662.77
2019-05-25T03:35:05.479Z,97661.24
2019-05-25T03:37:34.219Z,97659.39
2019-05-25T03:40:02.895Z,97659.23
2019-05-25T03:42:31.541Z,97661.13
2019-05-25T03:45:00.206Z,97670.33
2019-05-25T03:47:28.843Z,97668.17
2019-05-25T03:49:57.500Z,97668.96
2019-05-25T03:52:27.404Z,97671.48
2019-05-25T03:54:56.043Z,97666.59
2019-05-25T03:57:25.080Z,97665.13
2019-05-25T03:59:53.764Z,97669.69
2019-05-25T04:02:22.770Z,97672.91
2019-05-25T04:04:51.418Z,97665.39
2019-05-25T04:07:20.079Z,97671.50
2019-05-25T04:09:48.773Z,97668.55
2019-05-25T04:12:17.507Z,97674.23
2019-05-25T04:14:46.179Z,97672.23
2019-05-25T04:17:14.974Z,97668.55
2019-05-25T04:19:43.623Z,97663.91
2019-05-25T04:22:12.347Z,97664.70
2019-05-25T04:24:41.011Z,97675.27
2019-05-25T04:27:10.463Z,97673.53
2019-05-25T04:29:39.236Z,97677.53
2019-05-25T04:32:07.980Z,97681.43
2019-05-25T04:34:37.076Z,97683.32
2019-05-25T04:37:05.783Z,97685.21
2019-05-25T04:39:34.458Z,97688.73
2019-05-25T04:42:03.099Z,97689.73
2019-05-25T04:44:31.885Z,97683.74
2019-05-25T04:47:00.892Z,97687.69
2019-05-25T04:49:29.570Z,97693.03
2019-05-25T04:51:58.238Z,97687.72
2019-05-25T04:54:27.159Z,97694.97
2019-05-25T04:56:55.905Z,97698.70
2019-05-25T04:59:24.600Z,97700.23
2019-05-25T05:01:53.315Z,97696.55
2019-05-25T05:04:21.968Z,97701.59
2019-05-25T05:06:50.725Z,97694.76
2019-05-25T05:09:19.370Z,97690.20
2019-05-25T05:11:48.204Z,97696.36
2019-05-25T05:14:16.935Z,97692.20
2019-05-25T05:16:45.560Z,97691.00
2019-05-25T05:19:14.207Z,97690.17
2019-05-25T05:21:43.020Z,97688.61
2019-05-25T05:24:11.663Z,97699.47
2019-05-25T05:26:54.598Z,97684.32
2019-05-25T05:29:12.272Z,97689.20
2019-05-25T05:31:41.879Z,97686.75
2019-05-25T05:34:10.542Z,97689.89
2019-05-25T05:36:39.321Z,97686.88
2019-05-25T05:39:08.328Z,97687.53
2019-05-25T05:41:38.367Z,97688.50
2019-05-25T05:44:07.115Z,97693.70
2019-05-25T05:46:36.977Z,97691.92
2019-05-25T05:49:05.646Z,97695.77
2019-05-25T05:51:35.575Z,97692.52
2019-05-25T05:54:04.990Z,97691.47
2019-05-25T05:56:33.652Z,97688.01
2019-05-25T05:59:02.436Z,97690.23
2019-05-25T06:01:31.085Z,97684.15
2019-05-25T06:03:59.833Z,97687.79
2019-05-25T06:06:28.496Z,97682.97
2019-05-25T06:08:57.144Z,97693.73
2019-05-25T06:11:26.107Z,97690.23
2019-05-25T06:13:54.820Z,97698.25
2019-05-25T06:16:23.506Z,97698.02
2019-05-25T06:18:52.509Z,97701.34
2019-05-25T06:21:21.187Z,97701.78
2019-05-25T06:23:49.979Z,97692.47
2019-05-25T06:26:18.759Z,97701.75
2019-05-25T06:28:47.514Z,97700.92
2019-05-25T06:31:16.604Z,97704.47
2019-05-25T06:33:45.611Z,97701.73
2019-05-25T06:36:14.352Z,97700.52
2019-05-25T06:38:43.087Z,97703.21
2019-05-25T06:41:12.814Z,97707.80
2019-05-25T06:43:41.471Z,97707.20
2019-05-25T06:46:10.185Z,97708.61
2019-05-25T06:48:39.131Z,97708.94
2019-05-25T06:51:07.857Z,97714.52
2019-05-25T06:53:36.532Z,97710.16
2019-05-25T06:56:05.221Z,97712.73
2019-05-25T06:58:34.939Z,97723.25
2019-05-25T07:01:03.677Z,97720.69
2019-05-25T07:03:32.352Z,97728.27
2019-05-25T07:06:01.008Z,97728.73
2019-05-25T07:08:29.786Z,97734.05
2019-05-25T07:10:58.516Z,97733.02
2019-05-25T07:13:28.637Z,97731.03
2019-05-25T07:15:58.522Z,97732.38
2019-05-25T07:18:27.468Z,97731.91
2019-05-25T07:20:56.266Z,97733.02
2019-05-25T07:23:24.939Z,97728.86
2019-05-25T07:25:53.614Z,97732.72
2019-05-25T07:28:22.919Z,97729.17
2019-05-25T07:30:51.920Z,97731.33
2019-05-25T07:33:20.567Z,97732.16
2019-05-25T07:35:49.207Z,97733.81
2019-05-25T07:38:17.835Z,97732.37
2019-05-25T07:40:46.467Z,97731.50
2019-05-25T07:43:15.123Z,97730.75
2019-05-25T07:45:43.764Z,97726.88
2019-05-25T07:48:12.411Z,97728.75
2019-05-25T07:50:41.064Z,97725.53
2019-05-25T07:53:09.804Z,97727.97
2019-05-25T07:55:38.471Z,97732.48
2019-05-25T07:58:16.463Z,97730.47
2019-05-25T08:00:37.501Z,97730.48
2019-05-25T08:03:06.163Z,97729.48
2019-05-25T08:05:34.887Z,97737.39
2019-05-25T08:08:03.992Z,97725.97
2019-05-25T08:10:33.040Z,97729.14
2019-05-25T08:13:01.677Z,97732.86
2019-05-25T08:15:31.662Z,97733.17
2019-05-25T08:18:00.658Z,97732.07
2019-05-25T08:20:29.312Z,97737.09
2019-05-25T08:22:57.966Z,97726.49
2019-05-25T08:25:26.603Z,97735.48
2019-05-25T08:27:55.462Z,97735.34
2019-05-25T08:30:24.121Z,97728.19
2019-05-25T08:32:52.780Z,97729.77
2019-05-25T08:35:21.417Z,97732.59
2019-05-25T08:37:50.346Z,97735.84
2019-05-25T08:40:18.988Z,97735.72
2019-05-25T08:42:47.633Z,97739.36
2019-05-25T08:45:16.306Z,97743.50
2019-05-25T08:47:44.956Z,97743.07
2019-05-25T08:50:13.625Z,97741.84
2019-05-25T08:52:42.336Z,97736.81
2019-05-25T08:55:11.061Z,97742.28
2019-05-25T08:57:39.699Z,97736.11
2019-05-25T09:00:08.675Z,97737.75
2019-05-25T09:02:37.328Z,97740.58
2019-05-25T09:05:06.637Z,97741.59
2019-05-25T09:07:35.591Z,97742.21
2019-05-25T09:10:04.730Z,97744.38
2019-05-25T09:12:33.434Z,97744.69
2019-05-25T09:15:05.697Z,97746.77
2019-05-25T09:17:32.447Z,97743.88
2019-05-25T09:20:01.079Z,97748.25
2019-05-25T09:22:29.910Z,97745.00
2019-05-25T09:24:58.836Z,97747.60
2019-05-25T09:27:27.470Z,97741.25
2019-05-25T09:29:56.150Z,97744.53
2019-05-25T09:32:24.876Z,97747.06
2019-05-25T09:34:53.892Z,97738.84
2019-05-25T09:37:22.526Z,97735.60
2019-05-25T09:39:51.172Z,97732.94
2019-05-25T09:42:19.915Z,97726.94
2019-05-25T09:44:48.641Z,97727.84
2019-05-25T09:47:17.559Z,97723.77
2019-05-25T09:49:46.197Z,97724.32
2019-05-25T09:52:14.844Z,97719.55
2019-05-25T09:54:43.594Z,97721.53
2019-05-25T09:57:12.233Z,97724.95
2019-05-25T09:59:40.868Z,97726.58
2019-05-25T10:02:09.787Z,97720.01
2019-05-25T10:04:38.723Z,97720.81
2019-05-25T10:07:07.369Z,97720.66
2019-05-25T10:09:39.902Z,97718.27
2019-05-25T10:12:06.671Z,97716.58
2019-05-25T10:14:35.311Z,97719.98
2019-05-25T10:17:03.975Z,97720.50
2019-05-25T10:19:32.602Z,97716.07
2019-05-25T10:22:01.639Z,97714.69
2019-05-25T10:24:30.292Z,97711.94
2019-05-25T10:26:58.932Z,97708.52
2019-05-25T10:29:36.730Z,97707.77
2019-05-25T10:31:57.918Z,97704.64
2019-05-25T10:34:26.543Z,97699.51
2019-05-25T10:36:55.232Z,97703.23
2019-05-25T10:39:23.856Z,97700.27
2019-05-25T10:41:53.828Z,97700.05
2019-05-25T10:44:22.491Z,97696.91
2019-05-25T10:46:51.126Z,97697.50
2019-05-25T10:49:19.761Z,97696.36
2019-05-25T10:51:48.403Z,97695.62
2019-05-25T10:54:17.050Z,97695.46
2019-05-25T10:56:46.345Z,97689.06
2019-05-25T10:59:14.996Z,97689.30
2019-05-25T11:01:43.636Z,97689.52
2019-05-25T11:04:12.281Z,97681.84
2019-05-25T11:06:41.998Z,97674.47
2019-05-25T11:09:10.621Z,97676.16
2019-05-25T11:11:39.243Z,97674.83
2019-05-25T11:14:08.045Z,97666.16
2019-05-25T11:16:36.681Z,97664.75
2019-05-25T11:19:05.354Z,97659.17
2019-05-25T11:21:34.023Z,97656.00
2019-05-25T11:24:02.658Z,97662.05
2019-05-25T11:26:31.285Z,97651.84
2019-05-25T11:28:59.928Z,97660.28
2019-05-25T11:31:28.613Z,97650.73
2019-05-25T11:33:57.371Z,97650.83
2019-05-25T11:36:26.045Z,97653.34
2019-05-25T11:38:54.749Z,97659.92
2019-05-25T11:41:23.387Z,97656.38
2019-05-25T11:43:53.133Z,97656.00
2019-05-25T11:46:21.769Z,97650.44
2019-05-25T11:48:50.412Z,97646.57
2019-05-25T11:51:19.056Z,97642.08
2019-05-25T11:53:47.700Z,97643.94
2019-05-25T11:56:16.329Z,97642.09
2019-05-25T11:58:47.329Z,97641.55
2019-05-25T12:01:15.355Z,97640.33
2019-05-25T12:03:43.996Z,97644.52
2019-05-25T12:06:12.636Z,97639.19
2019-05-25T12:08:41.267Z,97640.06
2019-05-25T12:11:11.084Z,97634.69
2019-05-25T12:13:39.715Z,97628.02
2019-05-25T12:16:09.467Z,97627.09
2019-05-25T12:18:38.988Z,97628.61
2019-05-25T12:21:07.704Z,97627.01
2019-05-25T12:23:36.364Z,97626.23
2019-05-25T12:26:05.427Z,97626.70
2019-05-25T12:28:34.066Z,97622.83
2019-05-25T12:31:02.763Z,97621.78
2019-05-25T12:33:31.411Z,97611.07
2019-05-25T12:36:00.126Z,97614.41
2019-05-25T12:38:29.068Z,97604.36
2019-05-25T12:40:57.711Z,97602.73
2019-05-25T12:43:26.335Z,97600.42
2019-05-25T12:45:54.959Z,97596.42
2019-05-25T12:48:24.181Z,97583.91
2019-05-25T12:50:52.826Z,97588.31
2019-05-25T12:53:21.471Z,97585.02
2019-05-25T12:55:50.457Z,97583.27
2019-05-25T12:58:19.088Z,97580.53
2019-05-25T13:00:56.144Z,97579.50
2019-05-25T13:03:18.528Z,97578.20
2019-05-25T13:05:47.154Z,97570.34
2019-05-25T13:08:15.785Z,97566.82
2019-05-25T13:10:45.674Z,97569.67
2019-05-25T13:13:14.599Z,97566.86
2019-05-25T13:15:43.232Z,97577.95
2019-05-25T13:18:12.259Z,97569.30
2019-05-25T13:20:40.917Z,97567.45
2019-05-25T13:23:09.677Z,97572.50
2019-05-25T13:25:38.363Z,97567.19
2019-05-25T13:28:07.020Z,97566.19
2019-05-25T13:30:35.770Z,97565.61
2019-05-25T13:33:04.423Z,97562.20
2019-05-25T13:35:33.087Z,97565.35
2019-05-25T13:38:02.055Z,97565.64
2019-05-25T13:40:30.898Z,97563.13
2019-05-25T13:42:59.550Z,97562.58
2019-05-25T13:45:29.356Z,97559.46
2019-05-25T13:47:58.095Z,97563.72
2019-05-25T13:50:26.799Z,97560.52
2019-05-25T13:52:55.452Z,97555.81
2019-05-25T13:55:25.019Z,97560.86
2019-05-25T13:57:53.723Z,97561.81
2019-05-25T14:00:22.378Z,97561.89
2019-05-25T14:02:51.012Z,97561.11
2019-05-25T14:05:19.742Z,97565.66
2019-05-25T14:07:48.665Z,97565.50
2019-05-25T14:10:17.394Z,97558.44
2019-05-25T14:12:46.111Z,97549.09
2019-05-25T14:15:14.834Z,97560.65
2019-05-25T14:17:43.512Z,97556.41
2019-05-25T14:20:12.385Z,97555.66
2019-05-25T14:22:41.105Z,97549.99
2019-05-25T14:25:10.185Z,97546.25
2019-05-25T14:27:38.869Z,97541.84
2019-05-25T14:30:07.612Z,97538.33
2019-05-25T14:32:36.343Z,97544.58
2019-05-25T14:35:05.191Z,97540.11
2019-05-25T14:37:33.829Z,97539.11
2019-05-25T14:40:02.487Z,97540.00
2019-05-25T14:42:32.140Z,97541.89
2019-05-25T14:45:00.793Z,97530.89
2019-05-25T14:47:29.448Z,97537.61
2019-05-25T14:49:58.522Z,97549.28
2019-05-25T14:52:27.296Z,97557.13
2019-05-25T14:54:56.016Z,97560.81
2019-05-25T14:57:24.669Z,97564.55
2019-05-25T14:59:53.306Z,97564.89
2019-05-25T15:02:21.975Z,97563.28
2019-05-25T15:04:50.678Z,97560.71
2019-05-25T15:07:19.336Z,97565.47
2019-05-25T15:09:48.112Z,97567.38
2019-05-25T15:12:16.826Z,97568.77
2019-05-25T15:14:45.500Z,97582.09
2019-05-25T15:17:15.138Z,97582.92
2019-05-25T15:19:43.780Z,97586.66
2019-05-25T15:22:12.599Z,97581.06
2019-05-25T15:24:41.304Z,97584.65
2019-05-25T15:27:09.982Z,97578.18
2019-05-25T15:29:39.498Z,97576.11
2019-05-25T15:32:19.424Z,97578.55
2019-05-25T15:34:38.564Z,97575.19
2019-05-25T15:37:07.612Z,97579.47
2019-05-25T15:39:36.299Z,97580.31
2019-05-25T15:42:05.059Z,97572.91
2019-05-25T15:44:33.731Z,97566.78
2019-05-25T15:47:04.834Z,97570.90
2019-05-25T15:49:33.841Z,97575.67
2019-05-25T15:52:02.737Z,97573.09
2019-05-25T15:54:31.539Z,97570.16
2019-05-25T15:57:00.360Z,97572.56
2019-05-25T15:59:29.068Z,97579.31
2019-05-25T16:01:57.769Z,97581.11
2019-05-25T16:04:26.432Z,97587.17
2019-05-25T16:06:55.151Z,97590.09
2019-05-25T16:09:24.246Z,97588.95
2019-05-25T16:11:53.003Z,97592.46
2019-05-25T16:14:21.757Z,97587.07
2019-05-25T16:16:50.461Z,97586.81
2019-05-25T16:19:19.181Z,97578.55
2019-05-25T16:21:47.940Z,97577.62
2019-05-25T16:24:17.326Z,97578.86
2019-05-25T16:26:46.805Z,97584.09
2019-05-25T16:29:15.578Z,97586.97
2019-05-25T16:31:44.247Z,97589.73
2019-05-25T16:34:12.900Z,97582.23
2019-05-25T16:36:41.586Z,97590.44
2019-05-25T16:39:10.420Z,97589.47
2019-05-25T16:41:39.132Z,97599.25
2019-05-25T16:44:07.937Z,97594.35
2019-05-25T16:46:36.588Z,97602.20
2019-05-25T16:49:05.408Z,97598.62
2019-05-25T16:51:34.053Z,97609.22
2019-05-25T16:54:02.719Z,97610.94
2019-05-25T16:56:31.396Z,97614.59
2019-05-25T16:59:00.031Z,97611.06
2019-05-25T17:01:46.473Z,97606.86
2019-05-25T17:03:59.056Z,97612.08
2019-05-25T17:06:27.783Z,97609.13
2019-05-25T17:08:56.817Z,97608.27
2019-05-25T17:11:25.575Z,97606.41
2019-05-25T17:13:54.228Z,97607.70
2019-05-25T17:16:22.890Z,97605.36
2019-05-25T17:18:51.545Z,97610.88
2019-05-25T17:21:20.580Z,97611.03
2019-05-25T17:23:49.408Z,97615.73
2019-05-25T17:26:18.226Z,97611.39
2019-05-25T17:28:47.972Z,97616.42
2019-05-25T17:31:16.670Z,97613.63
2019-05-25T17:33:46.658Z,97614.41
2019-05-25T17:36:15.568Z,97614.67
2019-05-25T17:38:44.540Z,97615.80
2019-05-25T17:41:13.568Z,97615.98
2019-05-25T17:43:42.216Z,97616.67
2019-05-25T17:46:11.250Z,97613.28
2019-05-25T17:48:39.915Z,97611.64
2019-05-25T17:51:08.656Z,97612.06
2019-05-25T17:53:37.405Z,97615.55
2019-05-25T17:56:06.253Z,97620.45
2019-05-25T17:58:34.961Z,97621.39
2019-05-25T18:01:03.622Z,97624.34
2019-05-25T18:03:32.284Z,97619.84
2019-05-25T18:06:01.029Z,97616.80
2019-05-25T18:08:29.775Z,97623.14
2019-05-25T18:10:58.417Z,97629.05
2019-05-25T18:14:08.428Z,97627.51
2019-05-25T18:16:37.177Z,97634.66
2019-05-25T18:19:05.007Z,97631.22
2019-05-25T18:21:33.027Z,97637.09
2019-05-25T18:24:00.873Z,97633.27
2019-05-25T18:26:28.731Z,97634.39
2019-05-25T18:28:56.539Z,97631.95
2019-05-25T18:31:24.325Z,97635.48
2019-05-25T18:33:52.412Z,97637.25
2019-05-25T18:36:20.280Z,97638.45
2019-05-25T18:38:48.138Z,97637.11
2019-05-25T18:41:16.040Z,97639.50
2019-05-25T18:43:43.864Z,97640.33
2019-05-25T18:46:11.639Z,97642.73
2019-05-25T18:48:39.418Z,97640.98
2019-05-25T18:51:07.261Z,97640.24
2019-05-25T18:53:35.042Z,97644.20
2019-05-25T18:56:02.907Z,97648.05
2019-05-25T18:58:30.808Z,97653.92
2019-05-25T19:00:58.680Z,97661.31
2019-05-25T19:03:26.498Z,97653.91
2019-05-25T19:05:54.800Z,97655.36
2019-05-25T19:08:22.590Z,97649.31
2019-05-25T19:10:50.484Z,97656.55
2019-05-25T19:13:18.272Z,97661.73
2019-05-25T19:15:46.256Z,97666.57
2019-05-25T19:18:14.545Z,97670.38
2019-05-25T19:20:42.459Z,97674.76
2019-05-25T19:23:10.675Z,97676.77
2019-05-25T19:25:38.447Z,97680.36
2019-05-25T19:28:06.231Z,97680.77
2019-05-25T19:30:34.082Z,97688.30
2019-05-25T19:33:01.839Z,97695.00
2019-05-25T19:35:29.619Z,97691.87
2019-05-25T19:37:57.464Z,97696.02
2019-05-25T19:40:25.229Z,97700.56
2019-05-25T19:42:53.000Z,97706.47
2019-05-25T19:45:21.005Z,97703.72
2019-05-25T19:47:48.784Z,97712.38
2019-05-25T19:50:16.625Z,97715.90
2019-05-25T19:52:44.462Z,97715.91
2019-05-25T19:55:12.327Z,97725.74
2019-05-25T19:57:40.100Z,97722.41
2019-05-25T20:00:08.049Z,97731.85
2019-05-25T20:02:35.889Z,97735.16
2019-05-25T20:05:15.603Z,97735.73
2019-05-25T20:07:33.265Z,97732.38
2019-05-25T20:10:01.100Z,97743.78
2019-05-25T20:12:28.994Z,97746.34
2019-05-25T20:14:57.029Z,97750.06
2019-05-25T20:17:24.876Z,97745.34
2019-05-25T20:19:52.660Z,97749.61
2019-05-25T20:22:20.699Z,97743.91
2019-05-25T20:24:48.464Z,97745.84
2019-05-25T20:27:16.665Z,97750.74
2019-05-25T20:29:44.474Z,97750.30
2019-05-25T20:32:12.251Z,97750.48
2019-05-25T20:34:40.032Z,97749.67
2019-05-25T20:37:07.819Z,97760.85
2019-05-25T20:39:35.583Z,97758.49
2019-05-25T20:42:03.475Z,97763.98
2019-05-25T20:44:31.627Z,97769.29
2019-05-25T20:46:59.383Z,97772.81
2019-05-25T20:49:27.189Z,97764.17
2019-05-25T20:51:54.969Z,97763.79
2019-05-25T20:54:22.739Z,97764.98
2019-05-25T20:56:50.519Z,97773.05
2019-05-25T20:59:18.542Z,97762.25
2019-05-25T21:01:46.353Z,97762.66
2019-05-25T21:04:14.442Z,97766.19
2019-05-25T21:06:42.226Z,97767.18
2019-05-25T21:09:09.978Z,97767.36
2019-05-25T21:11:37.776Z,97769.11
2019-05-25T21:14:05.557Z,97762.05
2019-05-25T21:16:33.402Z,97763.41
2019-05-25T21:19:03.123Z,97771.85
2019-05-25T21:21:30.792Z,97771.05
2019-05-25T21:23:59.522Z,97779.30
2019-05-25T21:26:27.322Z,97775.90
2019-05-25T21:28:55.175Z,97778.65
2019-05-25T21:31:23.989Z,97777.41
2019-05-25T21:33:51.987Z,97776.61
2019-05-25T21:36:19.772Z,97779.91
2019-05-25T21:38:47.541Z,97795.75
2019-05-25T21:41:15.327Z,97801.48
2019-05-25T21:43:43.105Z,97805.32
2019-05-25T21:46:10.868Z,97798.93
2019-05-25T21:48:38.662Z,97804.69
2019-05-25T21:51:06.443Z,97803.41
2019-05-25T21:53:34.215Z,97809.92
2019-05-25T21:56:02.117Z,97806.87
2019-05-25T21:58:30.219Z,97808.68
2019-05-25T22:00:58.120Z,97807.08
2019-05-25T22:03:25.990Z,97814.21
2019-05-25T22:05:53.752Z,97812.20
2019-05-25T22:08:21.818Z,97815.20
2019-05-25T22:10:49.611Z,97817.77
2019-05-25T22:13:28.019Z,97812.48
2019-05-25T22:15:46.933Z,97809.59
2019-05-25T22:18:14.742Z,97815.70
2019-05-25T22:20:42.504Z,97811.94
2019-05-25T22:23:10.356Z,97811.55
2019-05-25T22:25:38.148Z,97816.77
2019-05-25T22:28:06.250Z,97816.54
2019-05-25T22:30:34.030Z,97818.43
2019-05-25T22:33:01.885Z,97823.91
2019-05-25T22:35:29.997Z,97822.27
2019-05-25T22:37:57.772Z,97824.00
2019-05-25T22:40:25.588Z,97829.02
2019-05-25T22:42:53.731Z,97824.45
2019-05-25T22:45:22.578Z,97835.23
2019-05-25T22:47:50.351Z,97837.36
2019-05-25T22:50:19.495Z,97833.21
2019-05-25T22:52:47.333Z,97835.75
2019-05-25T22:55:15.199Z,97832.42
2019-05-25T22:57:42.967Z,97827.45
2019-05-25T23:00:10.998Z,97827.25
2019-05-25T23:02:38.819Z,97827.56
2019-05-25T23:05:07.412Z,97829.48
2019-05-25T23:07:35.390Z,97830.27
2019-05-25T23:10:03.255Z,97830.06
2019-05-25T23:12:31.331Z,97831.98
2019-05-25T23:14:59.111Z,97828.66
2019-05-25T23:17:26.885Z,97833.80
2019-05-25T23:19:54.665Z,97829.49
2019-05-25T23:22:22.432Z,97833.03
2019-05-25T23:24:50.515Z,97829.08
2019-05-25T23:27:18.306Z,97840.51
2019-05-25T23:29:46.082Z,97834.61
2019-05-25T23:32:13.886Z,97834.98
2019-05-25T23:34:41.724Z,97835.36
2019-05-25T23:37:14.697Z,97833.12
2019-05-25T23:39:39.374Z,97835.78
2019-05-25T23:42:07.230Z,97835.73
2019-05-25T23:44:35.012Z,97839.34
2019-05-25T23:47:02.779Z,97846.30
2019-05-25T23:49:30.570Z,97838.95
2019-05-25T23:51:58.344Z,97841.44
2019-05-25T23:54:26.151Z,97846.41
2019-05-25T23:56:53.940Z,97840.88
2019-05-25T23:59:21.866Z,97842.90
